Time;durP1;ratioP1;P1;durP2;ratioP2;P2;SDS_P1;SDS_P2;PMS_P1;PMS_P2;Temp;Humidity;BMP_temperature;BMP_pressure;BME280_temperature;BME280_humidity;BME280_pressure;Samples;Min_cycle;Max_cycle;Signal;HPM_P1;HPM_P2
2021/09/08 00:01:17;;;;;;;20.73;11.05;;;;;;;12.38;94.48;98794.34;5026510;28;20032;-66
2021/09/08 00:03:42;;;;;;;18.25;12.15;;;;;;;12.38;94.46;98791.69;5026331;28;20042;-66
2021/09/08 00:06:08;;;;;;;17.95;10.68;;;;;;;12.43;94.11;98797.72;5026537;28;20033;-66
2021/09/08 00:08:33;;;;;;;16.80;11.30;;;;;;;12.46;93.85;98797.66;5026497;28;20120;-66
2021/09/08 00:10:59;;;;;;;15.77;11.07;;;;;;;12.39;93.47;98798.72;5026428;28;20072;-66
2021/09/08 00:13:25;;;;;;;17.63;10.70;;;;;;;12.15;93.28;98788.72;5026392;28;20025;-66
2021/09/08 00:15:50;;;;;;;17.45;11.05;;;;;;;12.12;93.24;98794.06;5026302;28;20033;-66
2021/09/08 00:18:16;;;;;;;20.00;10.90;;;;;;;12.23;93.67;98794.69;5026251;28;20025;-66
2021/09/08 00:20:41;;;;;;;14.48;10.75;;;;;;;12.15;93.73;98788.72;5026233;28;20329;-66
2021/09/08 00:23:07;;;;;;;20.10;10.65;;;;;;;12.18;93.48;98778.09;5026113;28;20030;-66
2021/09/08 00:25:32;;;;;;;15.27;9.95;;;;;;;12.06;92.42;98781.00;5026104;28;20213;-66
2021/09/08 00:27:58;;;;;;;17.38;11.45;;;;;;;12.13;93.10;98776.47;5026060;28;20029;-66
2021/09/08 00:30:23;;;;;;;15.70;10.80;;;;;;;12.04;93.00;98769.63;5008567;28;20036;-66
2021/09/08 00:32:49;;;;;;;14.70;10.10;;;;;;;12.06;93.51;98762.53;5025985;28;20041;-66
2021/09/08 00:35:14;;;;;;;14.60;10.10;;;;;;;12.13;93.61;98761.50;5025971;28;20022;-66
2021/09/08 00:37:40;;;;;;;15.75;10.43;;;;;;;11.99;93.09;98755.66;5025883;28;20022;-66
2021/09/08 00:40:08;;;;;;;15.68;10.77;;;;;;;11.89;94.01;98759.44;5025852;28;20321;-66
2021/09/08 00:42:33;;;;;;;15.75;10.65;;;;;;;11.93;94.43;98755.81;5025749;28;20033;-66
2021/09/08 00:44:58;;;;;;;15.57;10.63;;;;;;;11.95;93.69;98754.03;5025775;28;20053;-66
2021/09/08 00:47:24;;;;;;;14.50;10.05;;;;;;;11.94;93.65;98752.28;5025985;28;20217;-66
2021/09/08 00:49:49;;;;;;;17.70;11.05;;;;;;;11.78;93.02;98750.03;5025712;28;20029;-66
2021/09/08 00:52:17;;;;;;;15.85;9.63;;;;;;;11.80;93.30;98750.88;5025641;28;20041;-66
2021/09/08 00:54:49;;;;;;;19.00;10.55;;;;;;;11.73;93.68;98752.75;5025149;28;20030;-66
2021/09/08 00:57:16;;;;;;;15.68;9.63;;;;;;;11.68;93.84;98744.06;5025521;28;20065;-66
2021/09/08 00:59:43;;;;;;;13.77;10.18;;;;;;;11.79;94.45;98739.44;5025519;28;20025;-66
2021/09/08 01:02:09;;;;;;;13.52;9.48;;;;;;;11.77;93.77;98741.22;5025426;28;20033;-66
2021/09/08 01:04:35;;;;;;;14.43;9.90;;;;;;;11.61;93.30;98741.59;5025317;28;20053;-66
2021/09/08 01:07:03;;;;;;;15.13;10.18;;;;;;;11.53;93.51;98743.50;5025400;28;20076;-66
2021/09/08 01:09:28;;;;;;;13.93;9.55;;;;;;;11.68;94.04;98741.44;5025355;28;20029;-66
2021/09/08 01:11:54;;;;;;;12.93;9.38;;;;;;;11.62;93.79;98732.81;5025608;28;20021;-66
2021/09/08 01:14:20;;;;;;;13.60;9.45;;;;;;;11.66;93.88;98737.09;5025328;28;20021;-66
2021/09/08 01:16:51;;;;;;;11.77;9.07;;;;;;;11.67;93.55;98731.78;5025246;28;20049;-66
2021/09/08 01:19:17;;;;;;;13.77;10.00;;;;;;;11.53;93.27;98738.25;5025088;28;20329;-66
2021/09/08 01:21:43;;;;;;;13.95;9.35;;;;;;;11.34;92.99;98737.78;5025110;28;20089;-66
2021/09/08 01:24:08;;;;;;;13.40;9.25;;;;;;;11.41;93.56;98734.09;5025145;28;20021;-66
2021/09/08 01:26:35;;;;;;;14.68;9.68;;;;;;;11.49;93.79;98732.19;5025081;28;20272;-66
2021/09/08 01:29:00;;;;;;;14.48;9.77;;;;;;;11.47;93.56;98733.97;5025003;28;20014;-66
2021/09/08 01:31:26;;;;;;;15.57;10.40;;;;;;;11.36;93.46;98730.69;5024934;28;20020;-66
2021/09/08 01:33:53;;;;;;;16.90;10.55;;;;;;;11.41;93.69;98726.19;5024931;28;20022;-66
2021/09/08 01:36:18;;;;;;;17.42;9.75;;;;;;;11.33;94.11;98730.75;5025168;28;20026;-66
2021/09/08 01:38:43;;;;;;;13.55;9.75;;;;;;;11.34;94.24;98729.88;5024891;28;20213;-66
2021/09/08 01:41:09;;;;;;;13.73;9.75;;;;;;;11.46;93.46;98726.97;5024752;28;20028;-66
2021/09/08 01:43:34;;;;;;;15.63;10.02;;;;;;;11.42;93.35;98727.06;5024736;28;20021;-66
2021/09/08 01:46:00;;;;;;;15.80;9.93;;;;;;;11.28;94.15;98727.34;5024714;28;20018;-66
2021/09/08 01:48:25;;;;;;;18.13;11.65;;;;;;;11.27;95.30;98730.03;5024682;28;20025;-66
2021/09/08 01:50:50;;;;;;;17.77;11.88;;;;;;;11.28;95.50;98727.34;5024729;28;20324;-66
2021/09/08 01:53:16;;;;;;;17.35;11.45;;;;;;;11.32;95.82;98723.75;5024573;28;20025;-66
2021/09/08 01:55:41;;;;;;;17.35;12.00;;;;;;;11.29;95.82;98721.16;5024571;28;20028;-66
2021/09/08 01:58:07;;;;;;;19.88;11.75;;;;;;;11.24;94.82;98719.53;5024770;28;20025;-66
2021/09/08 02:00:32;;;;;;;17.05;10.98;;;;;;;11.33;94.40;98714.94;5024523;28;20025;-66
2021/09/08 02:02:58;;;;;;;16.77;10.63;;;;;;;11.28;94.11;98718.56;5024340;28;20026;-66
2021/09/08 02:05:23;;;;;;;19.65;10.32;;;;;;;11.09;93.42;98709.31;5023621;28;20053;-66
2021/09/08 02:07:49;;;;;;;16.75;10.95;;;;;;;11.05;93.68;98713.78;5024458;28;20018;-66
2021/09/08 02:10:14;;;;;;;16.42;9.75;;;;;;;11.07;94.34;98701.44;5024365;28;20049;-66
2021/09/08 02:12:42;;;;;;;18.58;12.25;;;;;;;10.98;94.81;98706.03;5024426;28;20018;-66
2021/09/08 02:15:08;;;;;;;15.20;10.82;;;;;;;11.09;95.08;98699.66;5024384;28;20195;-66
2021/09/08 02:17:34;;;;;;;15.27;10.32;;;;;;;11.06;94.49;98702.34;5024301;28;20068;-66
2021/09/08 02:19:59;;;;;;;13.63;8.43;;;;;;;11.08;94.12;98699.69;5024295;28;20252;-66
2021/09/08 02:22:24;;;;;;;17.10;10.13;;;;;;;10.94;93.43;98710.47;5024134;28;20125;-66
2021/09/08 02:24:50;;;;;;;12.00;9.10;;;;;;;11.07;93.98;98700.59;5024177;28;20217;-66
2021/09/08 02:27:15;;;;;;;13.00;8.18;;;;;;;11.08;93.66;98703.19;5024183;28;20026;-66
2021/09/08 02:29:41;;;;;;;14.82;9.07;;;;;;;10.90;92.86;98700.91;5024141;28;20022;-66
2021/09/08 02:32:06;;;;;;;13.75;9.50;;;;;;;10.99;93.48;98698.94;5024117;28;20018;-66
2021/09/08 02:34:32;;;;;;;14.13;9.13;;;;;;;10.81;93.16;98695.81;5024096;28;20021;-66
2021/09/08 02:36:58;;;;;;;17.98;9.48;;;;;;;10.78;93.36;98694.13;5024105;28;20312;-66
2021/09/08 02:39:23;;;;;;;16.17;9.60;;;;;;;10.91;93.56;98695.63;5024047;28;20028;-66
2021/09/08 02:41:49;;;;;;;16.38;9.63;;;;;;;10.99;93.54;98692.84;5024104;28;20166;-66
2021/09/08 02:44:14;;;;;;;17.45;9.63;;;;;;;10.76;93.02;98689.78;5023981;28;20029;-66
2021/09/08 02:46:40;;;;;;;13.43;9.27;;;;;;;10.86;92.88;98692.19;5023980;28;20344;-66
2021/09/08 02:49:05;;;;;;;17.27;9.40;;;;;;;10.75;93.08;98688.03;5023899;28;20018;-66
2021/09/08 02:51:31;;;;;;;16.38;10.55;;;;;;;10.68;93.07;98686.44;5024092;28;20225;-66
2021/09/08 02:53:56;;;;;;;17.70;10.90;;;;;;;10.63;93.36;98683.88;5023911;28;20379;-66
2021/09/08 02:56:22;;;;;;;15.80;10.50;;;;;;;10.54;93.41;98685.81;5006487;28;20140;-66
2021/09/08 02:58:47;;;;;;;17.27;11.13;;;;;;;10.50;94.07;98692.00;5023865;28;20085;-66
2021/09/08 03:01:12;;;;;;;14.55;10.18;;;;;;;10.51;93.75;98684.09;5023760;28;20026;-66
2021/09/08 03:03:39;;;;;;;14.90;10.02;;;;;;;10.48;93.31;98688.56;5023580;28;20107;-66
2021/09/08 03:06:04;;;;;;;14.93;10.13;;;;;;;10.59;93.95;98687.47;5023902;28;20344;-66
2021/09/08 03:08:30;;;;;;;13.65;10.13;;;;;;;10.64;94.06;98684.75;5023823;28;20045;-66
2021/09/08 03:10:55;;;;;;;13.77;9.15;;;;;;;10.66;93.89;98683.81;5023703;28;20093;-66
2021/09/08 03:13:20;;;;;;;18.83;9.55;;;;;;;10.57;93.71;98683.13;5023820;28;20024;-66
2021/09/08 03:15:47;;;;;;;16.85;9.93;;;;;;;10.46;93.26;98674.56;5023722;28;20025;-66
2021/09/08 03:18:12;;;;;;;15.82;10.57;;;;;;;10.36;93.27;98683.50;5027398;28;20026;-66
2021/09/08 03:20:38;;;;;;;14.38;9.73;;;;;;;10.31;93.40;98674.81;5027445;28;20064;-66
2021/09/08 03:23:04;;;;;;;13.68;9.70;;;;;;;10.30;93.32;98678.34;5027288;28;20022;-66
2021/09/08 03:25:30;;;;;;;12.35;8.93;;;;;;;10.41;93.98;98681.69;5027312;28;20026;-66
2021/09/08 03:27:55;;;;;;;15.18;9.85;;;;;;;10.32;93.51;98673.94;5027294;28;20221;-66
2021/09/08 03:30:21;;;;;;;14.75;9.15;;;;;;;10.35;93.05;98671.25;5027226;28;20029;-66
2021/09/08 03:32:46;;;;;;;12.80;9.02;;;;;;;10.23;92.86;98671.47;5027189;28;20024;-66
2021/09/08 03:35:12;;;;;;;13.55;9.07;;;;;;;10.14;93.15;98669.00;5027150;28;20041;-66
2021/09/08 03:37:38;;;;;;;14.15;9.45;;;;;;;10.14;93.49;98672.50;5027140;28;20217;-66
2021/09/08 03:40:05;;;;;;;17.52;11.00;;;;;;;10.17;93.83;98664.56;5027097;28;20029;-66
2021/09/08 03:42:32;;;;;;;17.05;9.73;;;;;;;10.09;93.77;98668.19;5026933;28;20217;-66
2021/09/08 03:44:57;;;;;;;13.60;9.85;;;;;;;10.25;93.63;98667.91;5026988;28;20029;-66
2021/09/08 03:47:23;;;;;;;13.75;9.30;;;;;;;10.14;93.34;98666.38;5026925;28;20022;-66
2021/09/08 03:49:49;;;;;;;18.67;9.13;;;;;;;10.04;92.85;98670.00;5026918;28;20191;-66
2021/09/08 03:52:18;;;;;;;13.18;8.85;;;;;;;10.08;93.42;98671.72;5009606;28;20088;-66
2021/09/08 03:54:43;;;;;;;14.23;10.02;;;;;;;9.95;93.78;98670.16;5026782;28;20088;-66
2021/09/08 03:57:09;;;;;;;14.73;9.23;;;;;;;10.05;93.65;98661.22;5026759;28;20072;-66
2021/09/08 03:59:35;;;;;;;15.43;9.15;;;;;;;10.06;93.64;98663.88;5026720;28;20025;-66
2021/09/08 04:02:01;;;;;;;14.48;9.90;;;;;;;9.93;93.91;98664.06;5026541;28;20060;-66
2021/09/08 04:04:27;;;;;;;13.15;8.45;;;;;;;10.01;93.92;98664.81;5026378;28;20053;-66
2021/09/08 04:06:53;;;;;;;12.85;8.98;;;;;;;9.92;93.11;98662.31;5026553;28;20022;-66
2021/09/08 04:09:18;;;;;;;12.50;8.75;;;;;;;9.89;93.50;98663.25;5009031;28;20033;-66
2021/09/08 04:11:43;;;;;;;13.55;8.95;;;;;;;9.81;93.18;98657.22;5026496;28;20044;-66
2021/09/08 04:14:10;;;;;;;13.57;8.98;;;;;;;9.92;93.17;98659.69;5026388;28;20028;-66
2021/09/08 04:16:35;;;;;;;12.60;9.25;;;;;;;9.92;93.40;98659.69;5026347;28;20026;-66
2021/09/08 04:19:01;;;;;;;15.32;10.20;;;;;;;9.92;94.04;98659.69;5026378;28;20041;-66
2021/09/08 04:21:26;;;;;;;13.93;9.73;;;;;;;10.02;93.78;98648.13;5026196;28;20084;-66
2021/09/08 04:23:52;;;;;;;15.98;8.70;;;;;;;9.84;93.51;98651.94;5026289;28;20056;-66
2021/09/08 04:26:18;;;;;;;14.55;8.80;;;;;;;9.91;93.43;98650.09;5026159;28;20026;-66
2021/09/08 04:28:43;;;;;;;12.95;8.27;;;;;;;9.96;93.64;98664.88;5025302;28;20109;-66
2021/09/08 04:31:09;;;;;;;12.45;8.52;;;;;;;9.91;93.28;98650.94;5026104;28;20026;-66
2021/09/08 04:33:34;;;;;;;14.55;9.02;;;;;;;9.84;93.22;98654.56;5026062;28;20025;-66
2021/09/08 04:36:00;;;;;;;16.75;9.23;;;;;;;9.90;93.13;98656.25;5026018;28;20213;-66
2021/09/08 04:38:25;;;;;;;12.63;8.95;;;;;;;9.85;93.40;98655.44;5026087;28;20022;-66
2021/09/08 04:40:51;;;;;;;14.07;8.68;;;;;;;9.79;92.96;98650.28;5025941;28;20021;-66
2021/09/08 04:43:17;;;;;;;12.77;9.45;;;;;;;9.75;93.19;98651.22;5025808;28;20198;-66
2021/09/08 04:45:42;;;;;;;16.65;10.40;;;;;;;9.87;93.40;98645.78;5025849;28;20040;-67
2021/09/08 04:48:08;;;;;;;14.32;9.65;;;;;;;9.85;93.73;98652.81;5025767;28;20025;-67
2021/09/08 04:50:34;;;;;;;16.48;9.65;;;;;;;9.85;93.32;98658.06;5025727;28;20061;-67
2021/09/08 04:52:59;;;;;;;11.60;8.73;;;;;;;9.83;93.62;98646.69;5025681;28;20313;-67
2021/09/08 04:55:24;;;;;;;12.82;8.98;;;;;;;9.78;93.19;98652.03;5025633;28;20368;-67
2021/09/08 04:57:50;;;;;;;12.57;9.15;;;;;;;9.78;93.40;98645.91;5025597;28;20018;-67
2021/09/08 05:00:15;;;;;;;13.10;9.23;;;;;;;9.75;93.64;98645.97;5025510;28;20321;-67
2021/09/08 05:02:41;;;;;;;16.95;9.93;;;;;;;9.71;94.13;98645.13;5025418;28;20033;-67
2021/09/08 05:05:07;;;;;;;12.43;9.00;;;;;;;9.85;94.44;98639.66;5025298;28;20237;-67
2021/09/08 05:07:33;;;;;;;13.27;8.48;;;;;;;9.88;93.85;98642.25;5025435;28;20309;-67
2021/09/08 05:09:58;;;;;;;13.02;9.25;;;;;;;9.90;93.10;98640.47;5025356;28;20025;-67
2021/09/08 05:12:23;;;;;;;11.80;8.02;;;;;;;9.93;93.21;98640.38;5025397;28;20042;-67
2021/09/08 05:14:49;;;;;;;12.50;8.98;;;;;;;9.84;93.36;98636.16;5025266;28;20313;-67
2021/09/08 05:17:14;;;;;;;14.88;9.82;;;;;;;9.85;93.54;98634.41;5025264;28;20039;-67
2021/09/08 05:19:39;;;;;;;13.23;8.38;;;;;;;9.89;93.31;98634.34;5025233;28;20088;-67
2021/09/08 05:22:05;;;;;;;14.73;8.52;;;;;;;9.92;93.32;98639.53;5025129;28;20235;-67
2021/09/08 05:24:30;;;;;;;15.15;8.68;;;;;;;9.98;92.73;98638.56;5025107;28;20025;-67
2021/09/08 05:26:56;;;;;;;11.95;8.30;;;;;;;10.03;93.01;98634.09;5025113;28;20347;-67
2021/09/08 05:29:21;;;;;;;13.38;8.95;;;;;;;10.07;93.37;98638.44;5025056;28;20028;-67
2021/09/08 05:31:46;;;;;;;12.45;9.27;;;;;;;10.16;93.12;98640.91;5024962;28;20022;-67
2021/09/08 05:34:12;;;;;;;13.48;8.63;;;;;;;10.16;93.46;98636.50;5024935;28;20021;-67
2021/09/08 05:36:37;;;;;;;16.83;10.15;;;;;;;10.38;93.55;98639.66;5024936;28;20032;-67
2021/09/08 05:39:03;;;;;;;12.30;8.32;;;;;;;10.85;92.92;98626.41;5024806;28;20377;-67
2021/09/08 05:41:28;;;;;;;12.93;7.85;;;;;;;11.32;91.24;98623.63;5024827;28;20021;-67
2021/09/08 05:43:54;;;;;;;14.00;8.73;;;;;;;11.75;90.20;98626.16;5024877;28;20017;-67
2021/09/08 05:46:19;;;;;;;12.43;9.10;;;;;;;12.12;89.26;98634.91;5024986;28;20044;-67
2021/09/08 05:48:45;;;;;;;13.15;7.43;;;;;;;12.63;87.65;98629.09;5024971;28;20085;-67
2021/09/08 05:51:10;;;;;;;11.90;6.82;;;;;;;13.01;85.50;98630.72;5024751;28;20021;-67
2021/09/08 05:53:36;;;;;;;12.43;7.50;;;;;;;13.43;85.03;98629.41;5024723;28;20344;-67
2021/09/08 05:56:01;;;;;;;9.55;6.43;;;;;;;13.87;82.69;98633.28;5024606;28;20018;-67
2021/09/08 05:58:26;;;;;;;10.18;6.38;;;;;;;14.08;80.26;98635.25;5024600;28;20022;-67
2021/09/08 06:00:52;;;;;;;9.75;7.07;;;;;;;14.20;79.60;98634.81;5024543;28;20093;-67
2021/09/08 06:03:17;;;;;;;10.02;6.05;;;;;;;14.55;78.66;98639.81;5024136;28;20085;-67
2021/09/08 06:05:43;;;;;;;12.40;6.22;;;;;;;14.62;77.76;98633.41;5024458;28;20037;-67
2021/09/08 06:08:08;;;;;;;10.32;6.25;;;;;;;14.80;77.41;98632.72;5006822;28;20028;-67
2021/09/08 06:10:34;;;;;;;9.57;6.72;;;;;;;15.26;76.86;98627.47;5024333;28;20339;-67
2021/09/08 06:13:00;;;;;;;11.50;6.15;;;;;;;15.62;75.67;98626.06;5024320;28;20116;-67
2021/09/08 06:15:25;;;;;;;9.68;6.28;;;;;;;15.94;75.67;98630.94;5024537;28;20022;-67
2021/09/08 06:17:50;;;;;;;10.15;7.32;;;;;;;16.31;73.55;98628.50;5024254;28;20396;-67
2021/09/08 06:20:16;;;;;;;9.95;7.22;;;;;;;16.42;74.04;98625.38;5024199;28;20045;-67
2021/09/08 06:22:42;;;;;;;11.85;6.70;;;;;;;16.86;72.29;98630.50;5024136;28;20018;-66
2021/09/08 06:25:08;;;;;;;10.32;6.97;;;;;;;16.93;72.58;98623.97;5024452;28;20308;-66
2021/09/08 06:27:34;;;;;;;11.02;6.65;;;;;;;17.36;72.22;98627.34;5024148;28;20068;-65
2021/09/08 06:30:00;;;;;;;11.13;7.32;;;;;;;17.74;71.32;98623.75;5024135;28;20190;-65
2021/09/08 06:32:25;;;;;;;11.45;6.53;;;;;;;18.01;71.42;98627.75;5024036;28;20077;-65
2021/09/08 06:34:51;;;;;;;12.57;7.80;;;;;;;18.46;70.86;98622.81;5024048;28;20077;-65
2021/09/08 06:37:17;;;;;;;11.00;6.50;;;;;;;18.74;70.28;98625.81;5006539;28;20244;-65
2021/09/08 06:39:43;;;;;;;9.80;7.53;;;;;;;18.69;71.54;98623.38;5024010;28;20033;-65
2021/09/08 06:42:08;;;;;;;11.40;7.22;;;;;;;18.93;71.54;98622.09;5023936;28;20018;-65
2021/09/08 06:44:34;;;;;;;14.82;6.88;;;;;;;19.49;69.42;98612.88;5023970;28;20076;-65
2021/09/08 06:46:59;;;;;;;14.23;7.43;;;;;;;19.65;67.96;98617.25;5023950;28;20333;-65
2021/09/08 06:49:25;;;;;;;10.70;6.72;;;;;;;20.11;67.00;98616.38;5023929;28;20029;-65
2021/09/08 06:51:50;;;;;;;11.15;7.32;;;;;;;20.36;66.95;98616.69;5025583;28;20018;-65
2021/09/08 06:54:16;;;;;;;14.00;9.98;;;;;;;20.70;66.51;98612.88;5027901;28;20022;-65
2021/09/08 06:56:41;;;;;;;18.27;9.32;;;;;;;21.31;64.94;98608.19;5027891;28;20022;-65
2021/09/08 06:59:07;;;;;;;12.98;8.32;;;;;;;21.89;64.06;98605.34;5027866;28;20026;-65
2021/09/08 07:01:33;;;;;;;14.52;8.43;;;;;;;22.35;63.38;98604.91;5027755;28;20025;-65
2021/09/08 07:03:58;;;;;;;12.05;8.00;;;;;;;22.42;64.02;98599.97;5027537;28;20357;-65
2021/09/08 07:06:24;;;;;;;15.70;8.77;;;;;;;22.17;63.19;98594.50;5010193;28;20026;-65
2021/09/08 07:08:50;;;;;;;16.63;11.35;;;;;;;22.67;60.94;98594.69;5010232;28;20045;-66
2021/09/08 07:11:17;;;;;;;15.10;10.23;;;;;;;23.30;57.83;98587.53;5027665;28;20033;-66
2021/09/08 07:13:43;;;;;;;18.35;10.88;;;;;;;23.69;56.17;98584.66;5027561;28;20072;-66
2021/09/08 07:16:08;;;;;;;21.88;12.40;;;;;;;23.91;55.17;98586.63;5027544;28;20022;-66
2021/09/08 07:18:33;;;;;;;17.52;11.45;;;;;;;24.07;55.98;98587.28;5027527;28;20030;-66
2021/09/08 07:20:59;;;;;;;19.05;11.80;;;;;;;23.92;55.58;98581.13;5027518;28;20053;-66
2021/09/08 07:23:24;;;;;;;16.60;10.90;;;;;;;24.99;54.15;98581.00;5027331;28;20021;-66
2021/09/08 07:25:50;;;;;;;17.13;11.90;;;;;;;24.66;53.57;98571.03;5027389;28;20381;-66
2021/09/08 07:28:15;;;;;;;16.77;10.68;;;;;;;25.11;55.80;98578.22;5027311;28;20089;-66
2021/09/08 07:30:41;;;;;;;18.52;11.90;;;;;;;25.22;54.46;98578.22;5027287;28;20093;-66
2021/09/08 07:33:07;;;;;;;20.00;10.77;;;;;;;25.21;52.41;98584.59;5027262;28;20136;-66
2021/09/08 07:35:32;;;;;;;18.38;11.68;;;;;;;25.91;52.85;98584.34;5027147;28;20022;-66
2021/09/08 07:38:00;;;;;;;19.40;11.00;;;;;;;25.82;51.03;98577.00;5027060;28;20018;-66
2021/09/08 07:40:26;;;;;;;17.30;11.52;;;;;;;25.55;51.04;98576.53;5027045;28;20022;-66
2021/09/08 07:42:51;;;;;;;14.65;10.85;;;;;;;26.37;51.43;98577.72;5026907;28;20025;-66
2021/09/08 07:45:18;;;;;;;14.95;10.70;;;;;;;26.86;49.45;98564.47;5026957;28;20041;-66
2021/09/08 07:47:43;;;;;;;19.25;11.48;;;;;;;26.10;49.32;98573.78;5026909;28;20029;-66
2021/09/08 07:50:09;;;;;;;14.60;10.45;;;;;;;26.02;49.42;98577.09;5026867;28;20089;-66
2021/09/08 07:52:35;;;;;;;14.95;10.80;;;;;;;26.04;49.97;98568.88;5026823;28;20017;-66
2021/09/08 07:55:01;;;;;;;15.68;10.20;;;;;;;26.70;46.86;98571.34;5026775;28;20028;-66
2021/09/08 07:57:27;;;;;;;13.48;10.27;;;;;;;26.06;48.97;98566.91;5026838;28;20052;-66
2021/09/08 07:59:52;;;;;;;16.45;9.95;;;;;;;26.91;47.13;98559.53;5026701;28;20022;-66
2021/09/08 08:02:18;;;;;;;13.30;10.02;;;;;;;27.21;46.13;98569.53;5025990;28;20252;-66
2021/09/08 08:04:43;;;;;;;16.30;10.10;;;;;;;27.42;46.26;98546.03;5025755;28;20041;-66
2021/09/08 08:07:08;;;;;;;16.45;10.00;;;;;;;27.13;46.06;98550.41;5026809;28;20025;-66
2021/09/08 08:09:34;;;;;;;12.80;9.65;;;;;;;26.90;46.45;98548.88;5026488;28;20208;-66
2021/09/08 08:11:59;;;;;;;14.60;9.27;;;;;;;27.15;44.02;98554.69;5026577;28;20041;-66
2021/09/08 08:14:25;;;;;;;13.77;9.43;;;;;;;27.37;45.44;98548.31;5026754;28;20030;-66
2021/09/08 08:16:51;;;;;;;14.02;9.13;;;;;;;27.16;44.51;98555.56;5026379;28;20028;-66
2021/09/08 08:19:17;;;;;;;14.85;9.52;;;;;;;27.26;44.50;98545.69;5026381;28;20029;-66
2021/09/08 08:21:42;;;;;;;16.35;9.50;;;;;;;27.40;44.21;98550.75;5026220;28;20021;-66
2021/09/08 08:24:08;;;;;;;15.45;8.80;;;;;;;27.45;43.71;98551.16;5026254;28;20048;-66
2021/09/08 08:26:33;;;;;;;14.55;9.30;;;;;;;27.54;44.39;98554.91;5026257;28;20359;-66
2021/09/08 08:28:58;;;;;;;16.55;9.05;;;;;;;28.01;42.54;98559.63;5026167;28;20355;-66
2021/09/08 08:31:24;;;;;;;14.70;8.60;;;;;;;27.77;43.40;98551.84;5026118;28;20018;-66
2021/09/08 08:33:50;;;;;;;13.75;9.45;;;;;;;27.99;41.24;98553.47;5026055;28;20021;-66
2021/09/08 08:36:16;;;;;;;13.63;9.05;;;;;;;28.00;41.94;98542.50;5026000;28;20316;-66
2021/09/08 08:38:44;;;;;;;12.68;8.80;;;;;;;26.96;42.57;98553.75;5025958;28;20376;-66
2021/09/08 08:41:09;;;;;;;14.63;9.15;;;;;;;27.84;42.95;98542.16;5025962;28;20025;-66
2021/09/08 08:43:35;;;;;;;17.02;9.10;;;;;;;28.71;41.19;98541.28;5025843;28;20033;-66
2021/09/08 08:46:00;;;;;;;12.70;8.73;;;;;;;28.58;41.04;98533.47;5025809;28;20017;-66
2021/09/08 08:48:26;;;;;;;12.27;8.90;;;;;;;29.07;38.21;98549.50;5025758;28;20025;-66
2021/09/08 08:50:52;;;;;;;13.57;8.82;;;;;;;28.79;39.56;98531.44;5025724;28;20321;-66
2021/09/08 08:53:17;;;;;;;14.50;8.68;;;;;;;28.72;39.21;98540.28;5025678;28;20018;-66
2021/09/08 08:55:42;;;;;;;13.35;8.65;;;;;;;28.00;40.38;98552.50;5025627;28;20321;-66
2021/09/08 08:58:08;;;;;;;12.98;8.20;;;;;;;27.58;39.97;98538.25;5025624;28;20026;-66
2021/09/08 09:00:33;;;;;;;14.57;8.35;;;;;;;28.09;39.32;98530.84;5025508;28;20029;-66
2021/09/08 09:02:59;;;;;;;11.85;8.48;;;;;;;27.75;39.00;98537.63;5025370;28;20041;-66
2021/09/08 09:05:27;;;;;;;13.65;8.45;;;;;;;27.64;40.02;98543.13;5025339;28;20056;-66
2021/09/08 09:07:53;;;;;;;15.20;8.25;;;;;;;28.35;37.78;98532.00;5025417;28;20018;-66
2021/09/08 09:10:18;;;;;;;13.32;8.55;;;;;;;27.85;38.72;98543.94;5025390;28;20089;-66
2021/09/08 09:12:46;;;;;;;11.70;7.90;;;;;;;28.53;38.54;98530.31;5025343;28;20018;-66
2021/09/08 09:15:19;;;;;;;14.38;7.43;;;;;;;27.86;38.63;98537.53;5024935;28;20136;-66
2021/09/08 09:17:46;;;;;;;11.82;9.00;;;;;;;27.96;38.58;98546.50;5025298;28;20029;-66
2021/09/08 09:20:13;;;;;;;12.38;8.30;;;;;;;28.04;39.13;98538.56;5025179;28;20026;-66
2021/09/08 09:22:40;;;;;;;12.80;7.95;;;;;;;27.90;39.66;98533.53;5025054;28;20032;-66
2021/09/08 09:25:08;;;;;;;11.20;8.27;;;;;;;28.45;38.40;98527.50;5025088;28;20037;-66
2021/09/08 09:28:03;;;;;;;12.30;8.43;;;;;;;28.59;36.75;98524.34;5025072;28;20025;-66
2021/09/08 09:30:34;;;;;;;13.63;8.27;;;;;;;28.66;37.56;98525.47;5008121;28;20057;-66
2021/09/08 09:33:01;;;;;;;13.57;7.97;;;;;;;29.18;37.59;98527.66;5025025;28;20125;-66
2021/09/08 09:35:29;;;;;;;11.00;7.70;;;;;;;28.96;36.25;98517.16;5024925;28;20029;-66
2021/09/08 09:37:59;;;;;;;12.13;7.70;;;;;;;29.16;35.79;98513.41;5024912;28;20140;-66
2021/09/08 09:40:33;;;;;;;10.73;7.45;;;;;;;29.08;35.97;98515.97;5024940;28;20018;-66
2021/09/08 09:43:04;;;;;;;14.25;7.85;;;;;;;28.98;37.20;98508.88;5024745;28;20091;-66
2021/09/08 09:45:34;;;;;;;11.20;8.07;;;;;;;29.16;36.02;98507.13;5024743;28;20032;-66
2021/09/08 09:48:01;;;;;;;11.88;7.53;;;;;;;29.99;38.39;98512.44;5024773;28;20025;-66
2021/09/08 09:50:27;;;;;;;12.85;7.28;;;;;;;29.52;35.95;98508.97;5025064;28;20095;-66
2021/09/08 09:52:53;;;;;;;13.25;8.15;;;;;;;29.01;35.38;98509.41;5024890;28;20341;-66
2021/09/08 09:55:20;;;;;;;13.15;7.45;;;;;;;28.86;34.49;98505.44;5024547;28;20021;-66
2021/09/08 09:57:46;;;;;;;15.32;7.10;;;;;;;28.73;35.83;98504.91;5024592;28;20026;-66
2021/09/08 10:00:14;;;;;;;12.32;8.43;;;;;;;29.34;36.22;98505.34;5024521;28;20037;-66
2021/09/08 10:02:40;;;;;;;15.05;7.70;;;;;;;29.21;33.85;98500.22;5024323;28;20232;-66
2021/09/08 10:05:06;;;;;;;13.25;7.03;;;;;;;29.09;33.17;98500.59;5024294;28;20056;-66
2021/09/08 10:07:34;;;;;;;11.88;7.53;;;;;;;28.91;35.16;98492.34;5024450;28;20025;-66
2021/09/08 10:10:05;;;;;;;13.65;7.57;;;;;;;28.53;34.63;98476.16;5024392;28;20040;-66
2021/09/08 10:12:39;;;;;;;14.57;7.18;;;;;;;28.61;35.23;98484.44;5024398;28;20028;-66
2021/09/08 10:15:07;;;;;;;12.82;7.78;;;;;;;29.11;34.35;98475.03;5024366;28;20221;-66
2021/09/08 10:17:41;;;;;;;10.48;6.93;;;;;;;28.88;34.56;98486.34;5024269;28;20032;-66
2021/09/08 10:20:08;;;;;;;10.10;6.68;;;;;;;28.66;34.21;98481.28;5024222;28;20030;-66
2021/09/08 10:22:42;;;;;;;10.32;7.50;;;;;;;28.75;34.92;98475.84;5024139;28;20032;-66
2021/09/08 10:25:11;;;;;;;11.82;7.53;;;;;;;28.27;35.25;98469.59;5006661;28;20265;-66
2021/09/08 10:27:37;;;;;;;11.45;7.38;;;;;;;28.50;36.13;98471.03;5023432;28;20029;-66
2021/09/08 10:30:04;;;;;;;10.98;7.22;;;;;;;28.98;35.00;98474.47;5024142;28;20148;-66
2021/09/08 10:32:29;;;;;;;12.23;7.20;;;;;;;28.82;35.58;98471.53;5024119;28;20021;-66
2021/09/08 10:34:55;;;;;;;11.70;7.13;;;;;;;28.63;35.49;98462.63;5024148;28;20089;-66
2021/09/08 10:37:21;;;;;;;12.23;7.20;;;;;;;28.46;35.47;98466.06;5024054;28;20021;-66
2021/09/08 10:39:47;;;;;;;12.23;7.47;;;;;;;27.99;35.83;98464.19;5024296;28;20022;-66
2021/09/08 10:42:14;;;;;;;12.07;6.90;;;;;;;27.86;35.39;98463.59;5024179;28;20203;-66
2021/09/08 10:44:51;;;;;;;10.98;7.47;;;;;;;28.51;34.97;98461.06;5023997;28;20025;-66
2021/09/08 10:47:34;;;;;;;11.80;7.35;;;;;;;28.55;36.29;98447.09;5023976;28;20022;-66
2021/09/08 10:50:00;;;;;;;12.85;7.82;;;;;;;28.66;35.62;98451.50;5024012;28;20021;-66
2021/09/08 10:52:34;;;;;;;10.60;7.00;;;;;;;28.85;35.00;98452.28;5023967;28;20025;-66
2021/09/08 10:54:59;;;;;;;9.85;7.15;;;;;;;28.76;35.06;98447.72;5023904;28;20022;-66
2021/09/08 10:57:43;;;;;;;12.65;6.65;;;;;;;28.28;36.20;98438.81;5023979;28;20053;-66
2021/09/08 11:00:26;;;;;;;10.65;7.47;;;;;;;28.83;36.32;98446.16;5023882;28;20348;-66
2021/09/08 11:02:52;;;;;;;11.30;6.80;;;;;;;28.82;35.22;98439.00;5023718;28;20026;-66
2021/09/08 11:05:18;;;;;;;10.40;6.50;;;;;;;28.84;35.48;98437.03;5023666;28;20118;-66
2021/09/08 11:07:45;;;;;;;12.88;7.43;;;;;;;29.19;35.67;98442.63;5023791;28;20032;-66
2021/09/08 11:10:12;;;;;;;11.02;7.28;;;;;;;28.69;35.44;98438.50;5023758;28;20221;-66
2021/09/08 11:12:49;;;;;;;12.68;7.90;;;;;;;28.22;35.73;98430.44;5023750;28;20022;-66
2021/09/08 11:15:18;;;;;;;12.50;7.35;;;;;;;28.03;36.72;98417.75;5023713;28;20318;-66
2021/09/08 11:17:51;;;;;;;10.45;7.57;;;;;;;28.01;38.39;98419.78;5023737;28;20065;-66
2021/09/08 11:20:17;;;;;;;9.27;7.15;;;;;;;28.28;36.83;98424.44;5023688;28;20025;-66